Air Navigation Services of Czech Republic
Airport: LKCV Updated:  29.04.2017 07:06:06  UTC
 METAR LKCV 29.04. 07:00 ...
METAR LKCV 290700Z 22005KT CAVOK 07/03 Q1017 NOSIG=
 TAF LKCV 29.04. 05:00 ...
TAF LKCV 290500Z 2906/3006 15008KT CAVOK      BECMG 2906/2908 26008KT      PROB40 TEMPO 2911/2922 8000 SHRA BKN035TCU      BECMG 2918/2920 BKN030      BECMG 2922/3000 VRB02KT=